»·PEaware :: SKW3845 KSEA-KGEG

SKW3845 :: KSEA-KGEG

FLIGHT INFORMATION

Flight Status: Arrived
Operator:
SkyWest Airlines
More flights by this operator :: More flights under this callsign
Pilot: Charles D. (23067)
Aircraft: EMBRAER EMB-170/175
(E170)
More flights by this aircraft type
Origin: KSEA Seattle-Tacoma Intl
United States
Destination: KGEG Spokane Intl
United States
More flights between these airports :: More routes between these airports
Route: +SEA7 ZADON ZELAK ZIRAN ZOOMR ZOOMR1
File this flight plan on PilotEdge
Remarks: RMK / SIMBRIEF
Altitude:
(Current/Filed)
29,000ft
Speed:
(Current/Filed)
372kts
Departed: 15-May-19 11:44 AM
Arrived: 15-May-19 12:20 PM
Distance/Time
Traveled:
194nm/0:36
Distance/Time
To Go:
Arrived

Flight Plot

Page will automatically refresh every two minutes.


Map Options




Map Legend


Flown Route
Filed Route
Departure Airport
Arrival Airport
Navaid (VOR, NDB)
Fix

Horizontal Profiles

Position Reports

Time Latitude Longitude Heading Altitude Ground
Speed
15-May-19 11:28 47.440617 -122.304225 41 441ft 0kts
15-May-19 11:29 47.440617 -122.304225 41 441ft 0kts
15-May-19 11:30 47.440617 -122.304225 41 441ft 0kts
15-May-19 11:31 47.440617 -122.304225 41 441ft 0kts
15-May-19 11:32 47.440617 -122.304225 41 441ft 0kts
15-May-19 11:33 47.440617 -122.304225 41 441ft 0kts
15-May-19 11:34 47.440617 -122.304225 41 441ft 0kts
15-May-19 11:35 47.440617 -122.304225 41 441ft 0kts
15-May-19 11:36 47.440617 -122.304225 41 441ft 0kts
15-May-19 11:37 47.440617 -122.304225 41 441ft 0kts
15-May-19 11:38 47.440558 -122.304303 41 441ft 4kts
15-May-19 11:39 47.440188 -122.304292 311 441ft 0kts
15-May-19 11:40 47.439986 -122.304975 243 441ft 1kts
15-May-19 11:41 47.439500 -122.306135 217 441ft 15kts
15-May-19 11:42 47.433673 -122.305603 180 441ft 17kts
15-May-19 11:43 47.437839 -122.308012 0 441ft 136kts
15-May-19 11:44 47.500012 -122.307846 359 3738ft 284kts
15-May-19 11:45 47.577623 -122.307853 358 7063ft 280kts
15-May-19 11:46 47.617203 -122.225055 95 10545ft 316kts
15-May-19 11:47 47.603739 -122.085648 102 14014ft 363kts
15-May-19 11:48 47.585996 -121.936099 103 17418ft 369kts
15-May-19 11:49 47.568273 -121.788547 104 20801ft 368kts
15-May-19 11:50 47.560880 -121.629173 96 24227ft 409kts
15-May-19 11:51 47.558543 -121.456600 96 27640ft 428kts
15-May-19 11:52 47.555742 -121.274769 96 28949ft 465kts
15-May-19 11:53 47.552465 -121.079292 96 28972ft 475kts
15-May-19 11:54 47.548851 -120.883556 96 28974ft 478kts
15-May-19 11:55 47.544871 -120.686736 96 28975ft 479kts
15-May-19 11:56 47.540545 -120.489702 96 28982ft 479kts
15-May-19 11:57 47.533290 -120.293651 98 28962ft 477kts
15-May-19 11:58 47.524300 -120.100159 98 27516ft 465kts
15-May-19 11:59 47.515204 -119.911031 98 26189ft 456kts
15-May-19 12:00 47.506142 -119.728911 98 24169ft 435kts
15-May-19 12:01 47.497167 -119.554085 98 22650ft 424kts
15-May-19 12:02 47.488078 -119.381999 97 21228ft 415kts
15-May-19 12:03 47.478957 -119.214148 98 19802ft 405kts
15-May-19 12:04 47.469801 -119.050056 98 18374ft 396kts
15-May-19 12:05 47.460621 -118.889839 97 16950ft 390kts
15-May-19 12:06 47.451318 -118.731071 96 15543ft 386kts
15-May-19 12:07 47.445844 -118.574530 84 14323ft 377kts
15-May-19 12:08 47.457737 -118.431061 84 12842ft 330kts
15-May-19 12:09 47.467932 -118.304685 84 11301ft 304kts
15-May-19 12:10 47.477701 -118.183628 84 9549ft 290kts
15-May-19 12:11 47.487011 -118.067134 84 7797ft 279kts
15-May-19 12:12 47.495725 -117.954188 84 6043ft 271kts
15-May-19 12:13 47.503583 -117.846542 84 4974ft 243kts
15-May-19 12:14 47.510444 -117.748552 84 3899ft 223kts
15-May-19 12:15 47.527825 -117.673782 47 3906ft 196kts
15-May-19 12:16 47.568028 -117.613395 46 3616ft 191kts
15-May-19 12:17 47.597700 -117.568761 46 2773ft 121kts
15-May-19 12:18 47.617341 -117.539152 46 2392ft 61kts
15-May-19 12:19 47.625161 -117.531308 248 2392ft 10kts
15-May-19 12:20 47.623856 -117.534835 224 2392ft 14kts
15-May-19 12:21 47.624460 -117.537117 72 2392ft 4kts
15-May-19 12:22 47.624484 -117.536609 90 2392ft 0kts

Navigation Log

Ident Type
Flight plan parsing failed, navigation log unavailable